createdAt,value
2023-02-11T00:00:00.350Z,18.57
2023-02-11T00:03:03.253Z,18.80
2023-02-11T00:06:12.039Z,17.92
2023-02-11T00:09:15.155Z,18.92
2023-02-11T00:12:19.755Z,17.90
2023-02-11T00:15:22.498Z,18.70
2023-02-11T00:18:25.696Z,19.67
2023-02-11T00:21:28.880Z,19.88
2023-02-11T00:24:32.614Z,18.80
2023-02-11T00:27:37.160Z,19.30
2023-02-11T00:30:40.267Z,19.10
2023-02-11T00:33:44.532Z,19.27
2023-02-11T00:36:47.411Z,19.13
2023-02-11T00:39:50.733Z,19.25
2023-02-11T00:42:53.630Z,18.98
2023-02-11T00:45:56.474Z,20.23
2023-02-11T00:48:59.755Z,20.07
2023-02-11T00:52:02.612Z,20.40
2023-02-11T00:55:05.669Z,20.90
2023-02-11T00:58:08.802Z,20.25
2023-02-11T01:01:12.780Z,18.77
2023-02-11T01:04:15.674Z,18.83
2023-02-11T01:07:19.063Z,18.88
2023-02-11T01:10:21.967Z,17.83
2023-02-11T01:13:25.962Z,19.25
2023-02-11T01:16:36.273Z,18.43
2023-02-11T01:19:39.631Z,17.47
2023-02-11T01:22:42.728Z,17.45
2023-02-11T01:25:53.189Z,19.00
2023-02-11T01:28:56.215Z,18.40
2023-02-11T01:32:00.634Z,18.70
2023-02-11T01:35:03.885Z,18.20
2023-02-11T01:38:08.640Z,17.65
2023-02-11T01:41:14.792Z,18.05
2023-02-11T01:44:33.344Z,17.08
2023-02-11T01:47:36.245Z,17.63
2023-02-11T01:50:41.803Z,18.00
2023-02-11T01:54:06.282Z,17.92
2023-02-11T01:57:22.293Z,15.57
2023-02-11T02:00:33.975Z,17.58
2023-02-11T02:03:41.926Z,17.70
2023-02-11T02:06:52.669Z,17.47
2023-02-11T02:10:01.951Z,17.10
2023-02-11T02:13:04.864Z,16.73
2023-02-11T02:16:19.670Z,16.92
2023-02-11T02:20:00.120Z,17.63
2023-02-11T02:23:28.870Z,18.17
2023-02-11T02:26:50.252Z,17.35
2023-02-11T02:30:17.838Z,16.35
2023-02-11T02:33:41.341Z,17.95
2023-02-11T02:36:52.001Z,17.27
2023-02-11T02:39:57.379Z,16.47
2023-02-11T02:43:01.775Z,17.80
2023-02-11T02:46:34.977Z,16.13
2023-02-11T02:49:37.874Z,17.08
2023-02-11T02:52:54.152Z,16.60
2023-02-11T02:56:10.014Z,16.80
2023-02-11T02:59:30.845Z,17.52
2023-02-11T03:02:36.543Z,17.27
2023-02-11T03:05:57.392Z,15.27
2023-02-11T03:09:11.488Z,15.40
2023-02-11T03:12:15.858Z,16.13
2023-02-11T03:15:21.597Z,16.73
2023-02-11T03:18:29.747Z,16.38
2023-02-11T03:21:33.952Z,16.48
2023-02-11T03:24:39.775Z,15.33
2023-02-11T03:27:46.609Z,14.80
2023-02-11T03:31:02.928Z,16.58
2023-02-11T03:34:16.563Z,15.93
2023-02-11T03:37:29.586Z,16.88
2023-02-11T03:40:36.716Z,15.47
2023-02-11T03:43:44.440Z,14.80
2023-02-11T03:46:51.042Z,16.65
2023-02-11T03:49:55.570Z,15.27
2023-02-11T03:53:02.203Z,15.00
2023-02-11T03:56:09.510Z,15.63
2023-02-11T03:59:12.189Z,15.43
2023-02-11T04:02:15.061Z,14.80
2023-02-11T04:05:18.025Z,16.00
2023-02-11T04:08:21.383Z,14.73
2023-02-11T04:11:24.118Z,16.03
2023-02-11T04:14:26.894Z,15.63
2023-02-11T04:17:29.738Z,14.50
2023-02-11T04:20:32.539Z,15.38
2023-02-11T04:23:35.370Z,15.43
2023-02-11T04:26:38.094Z,14.80
2023-02-11T04:29:41.033Z,15.10
2023-02-11T04:32:43.897Z,15.45
2023-02-11T04:35:47.106Z,14.25
2023-02-11T04:38:49.887Z,14.52
2023-02-11T04:41:52.828Z,15.30
2023-02-11T04:44:55.599Z,14.00
2023-02-11T04:47:58.392Z,14.50
2023-02-11T04:51:02.243Z,14.60
2023-02-11T04:54:05.116Z,15.45
2023-02-11T04:57:07.895Z,14.83
2023-02-11T05:00:11.237Z,15.83
2023-02-11T05:03:17.431Z,16.05
2023-02-11T05:06:23.724Z,15.77
2023-02-11T05:09:26.440Z,15.57
2023-02-11T05:12:29.178Z,15.43
2023-02-11T05:15:32.090Z,16.03
2023-02-11T05:18:38.476Z,15.55
2023-02-11T05:21:53.143Z,15.63
2023-02-11T05:25:03.196Z,15.48
2023-02-11T05:28:06.421Z,15.77
2023-02-11T05:31:09.456Z,14.70
2023-02-11T05:34:12.190Z,15.93
2023-02-11T05:37:15.192Z,15.70
2023-02-11T05:40:18.235Z,15.20
2023-02-11T05:43:21.548Z,15.30
2023-02-11T05:46:24.320Z,16.33
2023-02-11T05:49:31.105Z,15.82
2023-02-11T05:52:37.430Z,16.42
2023-02-11T05:55:40.401Z,17.52
2023-02-11T05:58:43.333Z,16.73
2023-02-11T06:01:46.310Z,17.90
2023-02-11T06:04:49.046Z,16.98
2023-02-11T06:07:52.381Z,17.25
2023-02-11T06:10:55.156Z,19.13
2023-02-11T06:13:57.984Z,17.90
2023-02-11T06:17:01.022Z,17.40
2023-02-11T06:20:06.835Z,17.90
2023-02-11T06:23:09.630Z,17.63
2023-02-11T06:26:18.577Z,18.73
2023-02-11T06:29:21.341Z,17.63
2023-02-11T06:32:42.682Z,17.67
2023-02-11T06:35:46.002Z,18.20
2023-02-11T06:38:49.834Z,17.77
2023-02-11T06:41:52.563Z,17.48
2023-02-11T06:44:55.382Z,18.73
2023-02-11T06:47:58.109Z,18.77
2023-02-11T06:51:11.521Z,19.92
2023-02-11T06:54:14.966Z,20.30
2023-02-11T06:57:17.762Z,19.77
2023-02-11T07:00:20.623Z,19.73
2023-02-11T07:03:23.635Z,20.87
2023-02-11T07:06:29.095Z,21.50
2023-02-11T07:09:32.048Z,21.75
2023-02-11T07:12:35.026Z,22.80
2023-02-11T07:15:40.873Z,22.60
2023-02-11T07:18:47.897Z,22.80
2023-02-11T07:21:51.507Z,22.83
2023-02-11T07:24:55.139Z,22.92
2023-02-11T07:27:58.058Z,23.80
2023-02-11T07:31:06.976Z,24.33
2023-02-11T07:34:13.968Z,23.63
2023-02-11T07:37:26.030Z,25.25
2023-02-11T07:40:29.251Z,27.20
2023-02-11T07:43:35.966Z,28.48
2023-02-11T07:46:50.168Z,29.73
2023-02-11T07:50:03.302Z,28.53
2023-02-11T07:53:06.480Z,31.67
2023-02-11T07:56:13.889Z,28.25
2023-02-11T07:59:22.665Z,27.38
2023-02-11T08:03:07.020Z,26.87
2023-02-11T08:06:25.096Z,26.77
2023-02-11T08:09:34.567Z,26.48
2023-02-11T08:12:40.726Z,25.48
2023-02-11T08:15:43.502Z,26.77
2023-02-11T08:18:47.058Z,24.77
2023-02-11T08:21:50.024Z,25.53
2023-02-11T08:24:52.837Z,24.95
2023-02-11T08:27:55.595Z,25.65
2023-02-11T08:30:58.449Z,24.88
2023-02-11T08:34:02.586Z,24.87
2023-02-11T08:37:09.513Z,26.17
2023-02-11T08:40:12.354Z,25.08
2023-02-11T08:43:15.500Z,25.17
2023-02-11T08:46:19.754Z,24.83
2023-02-11T08:49:22.988Z,23.73
2023-02-11T08:52:25.734Z,24.27
2023-02-11T08:55:28.465Z,23.85
2023-02-11T08:58:31.218Z,24.08
2023-02-11T09:01:34.401Z,23.23
2023-02-11T09:04:37.335Z,23.33
2023-02-11T09:07:40.252Z,23.97
2023-02-11T09:10:43.307Z,23.20
2023-02-11T09:13:46.658Z,22.85
2023-02-11T09:16:50.012Z,23.02
2023-02-11T09:19:52.928Z,23.80
2023-02-11T09:22:58.133Z,24.07
2023-02-11T09:26:17.383Z,22.95
2023-02-11T09:29:20.847Z,22.15
2023-02-11T09:32:23.791Z,23.15
2023-02-11T09:35:26.771Z,22.00
2023-02-11T09:38:29.792Z,22.57
2023-02-11T09:41:58.701Z,23.30
2023-02-11T09:45:02.757Z,23.08
2023-02-11T09:48:18.671Z,21.90
2023-02-11T09:51:47.510Z,21.57
2023-02-11T09:54:58.440Z,21.80
2023-02-11T09:58:05.315Z,21.83
2023-02-11T10:01:13.899Z,20.98
2023-02-11T10:04:45.416Z,21.02
2023-02-11T10:08:15.899Z,21.53
2023-02-11T10:11:48.661Z,21.03
2023-02-11T10:15:12.017Z,20.90
2023-02-11T10:18:32.938Z,21.30
2023-02-11T10:21:47.549Z,21.48
2023-02-11T10:24:54.811Z,21.23
2023-02-11T10:28:01.596Z,20.50
2023-02-11T10:31:16.611Z,20.80
2023-02-11T10:34:19.529Z,21.25
2023-02-11T10:37:22.353Z,21.42
2023-02-11T10:40:28.650Z,20.43
2023-02-11T10:43:35.072Z,20.97
2023-02-11T10:46:40.807Z,20.65
2023-02-11T10:49:46.082Z,20.58
2023-02-11T10:52:49.215Z,20.23
2023-02-11T10:55:54.904Z,19.73
2023-02-11T10:58:59.920Z,19.97
2023-02-11T11:02:07.047Z,21.55
2023-02-11T11:05:30.020Z,20.63
2023-02-11T11:08:41.509Z,20.25
2023-02-11T11:11:53.279Z,20.50
2023-02-11T11:15:24.088Z,19.37
2023-02-11T11:18:26.783Z,20.83
2023-02-11T11:21:42.228Z,19.42
2023-02-11T11:24:46.853Z,19.65
2023-02-11T11:27:51.464Z,20.27
2023-02-11T11:30:56.819Z,19.40
2023-02-11T11:34:02.530Z,19.42
2023-02-11T11:37:46.965Z,20.63
2023-02-11T11:41:15.537Z,20.20
2023-02-11T11:44:33.851Z,19.47
2023-02-11T11:47:42.066Z,18.77
2023-02-11T11:50:52.658Z,18.50
2023-02-11T11:54:06.649Z,19.33
2023-02-11T11:57:22.412Z,19.73
2023-02-11T12:00:38.201Z,19.67
2023-02-11T12:04:15.122Z,19.63
2023-02-11T12:07:21.994Z,19.05
2023-02-11T12:10:51.366Z,18.08
2023-02-11T12:14:14.211Z,19.88
2023-02-11T12:17:51.011Z,18.50
2023-02-11T12:21:18.464Z,20.63
2023-02-11T12:24:55.150Z,19.90
2023-02-11T12:28:25.966Z,18.73
2023-02-11T12:31:43.802Z,19.38
2023-02-11T12:35:04.858Z,18.93
2023-02-11T12:38:26.932Z,18.00
2023-02-11T12:42:13.500Z,18.33
2023-02-11T12:45:29.851Z,18.90
2023-02-11T12:48:57.388Z,18.50
2023-02-11T12:52:09.888Z,17.53
2023-02-11T12:55:24.037Z,17.00
2023-02-11T12:58:44.175Z,18.58
2023-02-11T13:01:50.724Z,18.15
2023-02-11T13:05:16.858Z,18.58
2023-02-11T13:08:33.851Z,17.17
2023-02-11T13:11:52.706Z,17.30
2023-02-11T13:15:00.307Z,16.58
2023-02-11T13:18:19.189Z,17.13
2023-02-11T13:22:01.637Z,17.85
2023-02-11T13:25:41.583Z,18.33
2023-02-11T13:28:50.627Z,18.00
2023-02-11T13:32:15.882Z,17.95
2023-02-11T13:35:29.840Z,18.42
2023-02-11T13:38:33.833Z,17.55
2023-02-11T13:41:41.085Z,17.50
2023-02-11T13:44:44.738Z,17.00
2023-02-11T13:47:52.584Z,16.75
2023-02-11T13:51:00.069Z,15.93
2023-02-11T13:54:04.917Z,17.08
2023-02-11T13:57:19.616Z,16.33
2023-02-11T14:00:34.935Z,16.63
2023-02-11T14:03:58.646Z,16.48
2023-02-11T14:07:51.272Z,15.77
2023-02-11T14:10:56.235Z,16.60
2023-02-11T14:14:18.129Z,17.80
2023-02-11T14:17:31.142Z,16.53
2023-02-11T14:20:39.181Z,16.80
2023-02-11T14:23:43.091Z,15.82
2023-02-11T14:26:59.727Z,16.58
2023-02-11T14:30:15.428Z,16.07
2023-02-11T14:33:52.744Z,15.57
2023-02-11T14:37:12.638Z,17.20
2023-02-11T14:40:33.421Z,16.35
2023-02-11T14:43:47.464Z,15.30
2023-02-11T14:46:55.252Z,16.20
2023-02-11T14:50:23.438Z,15.93
2023-02-11T14:53:30.507Z,15.43
2023-02-11T14:56:34.811Z,15.63
2023-02-11T14:59:38.689Z,16.83
2023-02-11T15:02:45.030Z,14.77
2023-02-11T15:05:59.509Z,14.93
2023-02-11T15:09:06.268Z,15.02
2023-02-11T15:12:31.844Z,15.48
2023-02-11T15:15:37.042Z,15.55
2023-02-11T15:18:43.858Z,14.43
2023-02-11T15:21:48.052Z,15.23
2023-02-11T15:25:17.612Z,15.68
2023-02-11T15:28:33.882Z,15.35
2023-02-11T15:31:38.028Z,15.27
2023-02-11T15:34:42.613Z,14.87
2023-02-11T15:37:47.379Z,14.47
2023-02-11T15:41:00.584Z,15.48
2023-02-11T15:44:05.188Z,15.13
2023-02-11T15:47:14.685Z,14.85
2023-02-11T15:50:25.209Z,15.10
2023-02-11T15:53:40.816Z,15.40
2023-02-11T15:56:48.597Z,16.10
2023-02-11T15:59:54.814Z,15.32
2023-02-11T16:03:00.877Z,14.38
2023-02-11T16:06:23.603Z,15.53
2023-02-11T16:09:36.882Z,16.30
2023-02-11T16:12:40.796Z,14.82
2023-02-11T16:15:55.319Z,16.58
2023-02-11T16:19:05.310Z,18.23
2023-02-11T16:22:16.546Z,17.33
2023-02-11T16:25:24.803Z,19.90
2023-02-11T16:28:30.750Z,19.95
2023-02-11T16:31:38.730Z,19.17
2023-02-11T16:34:47.278Z,19.50
2023-02-11T16:37:52.452Z,18.63
2023-02-11T16:40:56.956Z,19.90
2023-02-11T16:44:01.168Z,19.95
2023-02-11T16:47:08.761Z,18.80
2023-02-11T16:50:22.762Z,18.33
2023-02-11T16:53:27.121Z,19.73
2023-02-11T16:56:32.114Z,18.87
2023-02-11T16:59:43.374Z,18.98
2023-02-11T17:02:47.686Z,19.27
2023-02-11T17:05:55.849Z,18.60
2023-02-11T17:09:03.034Z,18.60
2023-02-11T17:12:07.542Z,19.00
2023-02-11T17:15:11.783Z,19.02
2023-02-11T17:18:16.227Z,18.63
2023-02-11T17:21:20.741Z,19.08
2023-02-11T17:24:29.099Z,18.93
2023-02-11T17:27:34.028Z,19.13
2023-02-11T17:30:41.495Z,18.23
2023-02-11T17:33:45.349Z,17.92
2023-02-11T17:36:56.311Z,18.42
2023-02-11T17:40:00.785Z,17.93
2023-02-11T17:43:05.496Z,18.87
2023-02-11T17:46:10.796Z,18.35
2023-02-11T17:49:18.084Z,18.67
2023-02-11T17:52:27.680Z,17.77
2023-02-11T17:55:35.148Z,18.83
2023-02-11T17:58:41.215Z,17.17
2023-02-11T18:01:46.108Z,18.45
2023-02-11T18:04:50.485Z,18.98
2023-02-11T18:07:57.918Z,18.17
2023-02-11T18:11:09.685Z,18.20
2023-02-11T18:14:13.745Z,18.17
2023-02-11T18:17:18.116Z,19.92
2023-02-11T18:20:22.793Z,19.40
2023-02-11T18:23:28.219Z,19.30
2023-02-11T18:26:32.686Z,18.50
2023-02-11T18:29:42.294Z,19.23
2023-02-11T18:32:46.993Z,17.55
2023-02-11T18:35:51.720Z,18.00
2023-02-11T18:38:58.765Z,17.65
2023-02-11T18:42:04.224Z,17.97
2023-02-11T18:45:12.437Z,18.40
2023-02-11T18:48:18.867Z,17.63
2023-02-11T18:51:24.916Z,17.85
2023-02-11T18:54:29.305Z,18.10
2023-02-11T18:57:44.640Z,17.73
2023-02-11T19:00:50.631Z,17.13
2023-02-11T19:03:58.760Z,19.05
2023-02-11T19:07:04.934Z,18.67
2023-02-11T19:10:09.810Z,17.55
2023-02-11T19:13:14.964Z,17.23
2023-02-11T19:16:21.428Z,17.93
2023-02-11T19:19:28.816Z,17.25
2023-02-11T19:22:33.510Z,19.38
2023-02-11T19:25:48.104Z,18.45
2023-02-11T19:28:55.309Z,19.03
2023-02-11T19:32:00.007Z,19.90
2023-02-11T19:35:11.095Z,19.80
2023-02-11T19:38:19.778Z,18.17
2023-02-11T19:41:25.374Z,18.08
2023-02-11T19:44:31.369Z,18.80
2023-02-11T19:47:36.551Z,19.50
2023-02-11T19:50:42.578Z,19.33
2023-02-11T19:53:47.323Z,19.35
2023-02-11T19:56:56.296Z,20.75
2023-02-11T20:00:01.786Z,18.70
2023-02-11T20:03:16.100Z,18.87
2023-02-11T20:06:25.556Z,18.88
2023-02-11T20:09:32.493Z,18.33
2023-02-11T20:12:38.808Z,18.52
2023-02-11T20:15:42.286Z,19.17
2023-02-11T20:18:50.979Z,18.43
2023-02-11T20:21:56.164Z,19.45
2023-02-11T20:25:02.331Z,19.17
2023-02-11T20:28:09.043Z,20.13
2023-02-11T20:31:14.434Z,20.07
2023-02-11T20:34:19.621Z,20.40
2023-02-11T20:37:27.963Z,20.40
2023-02-11T20:40:33.679Z,20.25
2023-02-11T20:43:38.128Z,19.17
2023-02-11T20:46:46.771Z,21.30
2023-02-11T20:49:51.601Z,19.90
2023-02-11T20:52:58.143Z,19.35
2023-02-11T20:56:07.469Z,20.30
2023-02-11T20:59:12.973Z,20.88
2023-02-11T21:02:18.504Z,19.63
2023-02-11T21:05:23.011Z,20.50
2023-02-11T21:08:27.276Z,20.00
2023-02-11T21:11:31.983Z,20.00
2023-02-11T21:14:40.445Z,19.95
2023-02-11T21:17:44.857Z,20.23
2023-02-11T21:20:49.939Z,20.77
2023-02-11T21:23:56.632Z,20.88
2023-02-11T21:27:01.459Z,22.83
2023-02-11T21:30:07.442Z,21.45
2023-02-11T21:33:14.641Z,20.20
2023-02-11T21:36:18.887Z,21.27
2023-02-11T21:39:25.498Z,21.13
2023-02-11T21:42:29.693Z,21.80
2023-02-11T21:45:33.615Z,20.67
2023-02-11T21:48:37.824Z,21.67
2023-02-11T21:51:44.426Z,22.47
2023-02-11T21:54:50.586Z,22.08
2023-02-11T21:57:54.680Z,21.75
2023-02-11T22:00:57.794Z,19.88
2023-02-11T22:04:01.929Z,22.07
2023-02-11T22:07:05.266Z,20.47
2023-02-11T22:10:09.523Z,21.45
2023-02-11T22:13:13.457Z,22.17
2023-02-11T22:16:16.852Z,20.85
2023-02-11T22:19:20.258Z,21.67
2023-02-11T22:22:23.970Z,22.10
2023-02-11T22:25:26.702Z,21.00
2023-02-11T22:28:30.429Z,21.08
2023-02-11T22:31:34.920Z,20.27
2023-02-11T22:34:38.162Z,19.33
2023-02-11T22:37:41.110Z,21.03
2023-02-11T22:40:44.055Z,19.23
2023-02-11T22:43:48.570Z,20.17
2023-02-11T22:46:52.524Z,19.85
2023-02-11T22:49:55.335Z,21.13
2023-02-11T22:52:58.094Z,21.33
2023-02-11T22:56:09.332Z,20.77
2023-02-11T22:59:14.749Z,21.17
2023-02-11T23:02:17.927Z,20.67
2023-02-11T23:05:20.788Z,20.87
2023-02-11T23:08:23.657Z,19.03
2023-02-11T23:11:30.497Z,20.38
2023-02-11T23:14:33.424Z,19.40
2023-02-11T23:17:36.277Z,20.13
2023-02-11T23:20:43.813Z,19.17
2023-02-11T23:23:47.038Z,19.87
2023-02-11T23:26:50.133Z,18.98
2023-02-11T23:29:56.024Z,19.27
2023-02-11T23:32:58.925Z,19.92
2023-02-11T23:36:01.685Z,18.30
2023-02-11T23:39:08.382Z,19.00
2023-02-11T23:42:12.180Z,18.40
2023-02-11T23:45:15.142Z,19.45
2023-02-11T23:48:18.284Z,18.42
2023-02-11T23:51:21.790Z,19.33
2023-02-11T23:54:24.635Z,19.23
2023-02-11T23:57:27.410Z,19.08
